createdAt,value
2022-08-08T00:00:51.247Z,0.00
2022-08-08T00:10:00.137Z,0.00
2022-08-08T00:20:00.118Z,0.00
2022-08-08T00:30:00.144Z,0.00
2022-08-08T00:41:08.726Z,0.00
2022-08-08T00:50:01.439Z,0.00
2022-08-08T01:00:00.138Z,0.00
2022-08-08T01:10:01.699Z,0.00
2022-08-08T01:20:02.328Z,0.00
2022-08-08T01:30:01.452Z,0.00
2022-08-08T01:40:00.204Z,0.00
2022-08-08T01:50:00.089Z,0.00
2022-08-08T02:00:01.326Z,0.00
2022-08-08T02:10:03.045Z,0.00
2022-08-08T02:20:08.117Z,0.00
2022-08-08T02:30:00.096Z,0.00
2022-08-08T02:40:00.597Z,0.00
2022-08-08T02:50:00.129Z,0.00
2022-08-08T03:00:01.785Z,0.34
2022-08-08T03:10:00.111Z,2.26
2022-08-08T03:20:00.076Z,10.75
2022-08-08T03:30:00.138Z,18.33
2022-08-08T03:40:02.221Z,111.67
2022-08-08T03:50:02.083Z,101.67
2022-08-08T04:00:03.056Z,153.33
2022-08-08T04:10:03.417Z,213.33
2022-08-08T04:20:01.875Z,548.33
2022-08-08T04:30:00.662Z,341.67
2022-08-08T04:40:04.494Z,416.67
2022-08-08T04:50:01.455Z,965.42
2022-08-08T05:00:00.130Z,523.33
2022-08-08T05:10:00.153Z,1124.58
2022-08-08T05:20:04.663Z,1184.17
2022-08-08T05:30:00.138Z,1231.67
2022-08-08T05:40:00.124Z,640.00
2022-08-08T05:50:00.088Z,658.33
2022-08-08T06:00:19.531Z,1473.75
2022-08-08T06:10:02.425Z,1512.50
2022-08-08T06:20:00.125Z,1550.00
2022-08-08T06:30:01.925Z,795.00
2022-08-08T06:40:00.680Z,1632.92
2022-08-08T06:50:00.132Z,1668.75
2022-08-08T07:00:01.817Z,1725.83
2022-08-08T07:10:00.858Z,875.00
2022-08-08T07:20:00.306Z,1799.17
2022-08-08T07:30:08.324Z,1849.58
2022-08-08T07:40:00.202Z,1890.83
2022-08-08T07:50:00.105Z,1938.75
2022-08-08T08:00:00.126Z,1990.42
2022-08-08T08:10:00.106Z,2062.08
2022-08-08T08:20:00.119Z,2100.42
2022-08-08T08:30:00.119Z,2160.00
2022-08-08T08:40:02.765Z,2228.33
2022-08-08T08:50:00.120Z,2309.17
2022-08-08T09:00:04.679Z,2396.25
2022-08-08T09:10:00.111Z,2570.00
2022-08-08T09:21:55.881Z,2787.50
2022-08-08T09:30:00.109Z,3314.17
2022-08-08T09:40:00.619Z,3541.25
2022-08-08T09:50:01.574Z,4398.33
2022-08-08T10:10:01.667Z,5309.58
2022-08-08T10:20:00.543Z,5884.17
2022-08-08T10:30:00.176Z,5187.08
2022-08-08T10:40:02.360Z,5532.92
2022-08-08T10:50:02.747Z,34166.67
2022-08-08T11:00:00.124Z,34578.33
2022-08-08T11:10:00.112Z,14857.50
2022-08-08T11:20:02.845Z,36159.17
2022-08-08T11:30:18.782Z,36740.00
2022-08-08T11:40:00.172Z,16838.33
2022-08-08T11:50:00.119Z,35483.33
2022-08-08T12:00:05.278Z,7998.75
2022-08-08T12:10:02.845Z,8692.50
2022-08-08T12:20:00.133Z,36731.67
2022-08-08T12:30:02.006Z,13613.75
2022-08-08T12:40:02.551Z,37145.00
2022-08-08T12:50:00.082Z,35927.50
2022-08-08T13:00:03.185Z,38044.17
2022-08-08T13:10:02.092Z,38135.00
2022-08-08T13:20:04.175Z,37706.67
2022-08-08T13:30:00.250Z,9860.83
2022-08-08T13:40:00.181Z,8489.17
2022-08-08T13:50:38.195Z,7766.25
2022-08-08T14:00:00.148Z,6957.92
2022-08-08T14:10:02.152Z,7148.75
2022-08-08T14:20:06.724Z,7368.33
2022-08-08T14:30:00.150Z,8177.50
2022-08-08T14:40:06.296Z,28054.17
2022-08-08T14:50:02.589Z,23135.83
2022-08-08T15:00:00.155Z,6012.92
2022-08-08T15:10:00.151Z,6707.92
2022-08-08T15:20:00.139Z,6484.17
2022-08-08T15:30:00.145Z,8897.08
2022-08-08T15:40:00.178Z,28039.17
2022-08-08T15:50:00.165Z,25403.75
2022-08-08T16:00:04.878Z,19917.50
2022-08-08T16:13:01.455Z,21769.17
2022-08-08T16:20:00.826Z,22051.25
2022-08-08T16:30:08.635Z,15532.50
2022-08-08T16:40:03.144Z,18696.25
2022-08-08T16:50:01.573Z,6556.67
2022-08-08T17:00:01.496Z,8071.25
2022-08-08T17:10:00.113Z,14080.83
2022-08-08T17:20:00.117Z,4668.33
2022-08-08T17:30:00.132Z,3783.75
2022-08-08T17:40:05.308Z,2847.92
2022-08-08T17:50:01.654Z,1960.42
2022-08-08T18:00:01.807Z,1543.75
2022-08-08T18:10:00.137Z,1120.00
2022-08-08T18:20:37.649Z,762.08
2022-08-08T18:30:00.120Z,468.75
2022-08-08T18:40:00.189Z,243.33
2022-08-08T18:50:02.404Z,111.67
2022-08-08T19:00:00.130Z,39.17
2022-08-08T19:10:14.081Z,9.62
2022-08-08T19:20:02.377Z,2.04
2022-08-08T19:30:00.109Z,0.34
2022-08-08T19:40:00.104Z,0.00
2022-08-08T19:50:00.920Z,0.00
2022-08-08T20:00:00.115Z,0.00
2022-08-08T20:20:00.110Z,0.00
2022-08-08T20:30:01.329Z,0.00
2022-08-08T20:40:00.164Z,0.00
2022-08-08T20:50:01.271Z,0.00
2022-08-08T21:00:00.139Z,0.00
2022-08-08T21:10:02.508Z,0.00
2022-08-08T21:20:00.154Z,0.00
2022-08-08T21:30:03.081Z,0.00
2022-08-08T21:40:00.321Z,0.00
2022-08-08T21:50:00.169Z,0.00
2022-08-08T22:00:02.200Z,0.00
2022-08-08T22:10:01.635Z,0.00
2022-08-08T22:20:10.283Z,0.00
2022-08-08T22:31:40.994Z,0.00
2022-08-08T22:40:01.800Z,0.00
2022-08-08T22:50:01.194Z,0.00
2022-08-08T23:00:00.148Z,0.00
2022-08-08T23:10:00.124Z,0.00
2022-08-08T23:20:00.099Z,0.00
2022-08-08T23:30:00.139Z,0.00
2022-08-08T23:40:00.232Z,0.00
2022-08-08T23:50:01.223Z,0.00
